Terminal Aerodrome Forecast
Issued by NWS

Home | Current Version | Previous Version | Text Only | Print | Product List | Glossary On
Versions: 1 2 3 4 5 6 7 8 9 10 11 12 13 14 15 16 17 18 19
000
FTUS43 KILX 160800 AAA
TAFDEC
TAF AMD
KDEC 160813Z 1608/1706 36007KT 6SM BR BKN018
     FM161100 36006KT 6SM BR FEW002
      TEMPO 1611/1614 3SM BR
     FM161600 VRB05KT P6SM SKC=

USA.gov is the U.S. government's official web portal to all federal, state and local government web resources and services.